Time;durP1;ratioP1;P1;durP2;ratioP2;P2;SDS_P1;SDS_P2;PMS_P1;PMS_P2;Temp;Humidity;BMP_temperature;BMP_pressure;BME280_temperature;BME280_humidity;BME280_pressure;Samples;Min_cycle;Max_cycle;Signal;HPM_P1;HPM_P2
2022/06/09 00:00:30;;;;;;;0.00;0.00;;;18.80;99.90;;;;;;5000189;28;20276;-77
2022/06/09 00:03:01;;;;;;;0.00;0.00;;;18.80;99.90;;;;;;5000810;28;20209;-78
2022/06/09 00:05:29;;;;;;;0.00;0.00;;;18.70;99.90;;;;;;4998660;28;20205;-78
2022/06/09 00:07:58;;;;;;;0.00;0.00;;;18.70;99.90;;;;;;5000148;28;20197;-77
2022/06/09 00:10:30;;;;;;;0.00;0.00;;;18.70;99.90;;;;;;4998209;28;20200;-74
2022/06/09 00:12:57;;;;;;;0.00;0.00;;;18.60;99.90;;;;;;5004389;28;20205;-75
2022/06/09 00:15:25;;;;;;;0.00;0.00;;;18.60;99.90;;;;;;4997149;28;20224;-75
2022/06/09 00:17:52;;;;;;;0.00;0.00;;;18.50;99.90;;;;;;5006150;28;20213;-75
2022/06/09 00:20:20;;;;;;;0.00;0.00;;;18.50;99.90;;;;;;4997238;28;20200;-75
2022/06/09 00:22:47;;;;;;;0.00;0.00;;;18.50;99.90;;;;;;5003049;28;20296;-75
2022/06/09 00:25:14;;;;;;;0.00;0.00;;;18.50;99.90;;;;;;4995161;28;20277;-75
2022/06/09 00:27:42;;;;;;;0.00;0.00;;;18.50;99.90;;;;;;5002731;28;20284;-76
2022/06/09 00:30:12;;;;;;;0.00;0.00;;;18.50;99.90;;;;;;4995857;28;20217;-77
2022/06/09 00:32:40;;;;;;;0.00;0.00;;;18.50;99.90;;;;;;4995960;28;20246;-77
2022/06/09 00:35:08;;;;;;;0.00;0.00;;;18.50;99.90;;;;;;5002361;28;20204;-77
2022/06/09 00:37:35;;;;;;;0.00;0.00;;;18.40;99.90;;;;;;4988583;28;20213;-74
2022/06/09 00:40:02;;;;;;;0.00;0.00;;;18.40;99.90;;;;;;5008374;28;20251;-75
2022/06/09 00:42:31;;;;;;;0.00;0.00;;;18.40;99.90;;;;;;4998001;28;20648;-77
2022/06/09 00:45:29;;;;;;;0.00;0.00;;;18.40;99.90;;;;;;5000746;28;20224;-77
2022/06/09 00:48:03;;;;;;;0.00;0.00;;;18.40;99.90;;;;;;4995979;28;20216;-77
2022/06/09 00:50:32;;;;;;;0.00;0.00;;;18.30;99.90;;;;;;5000519;28;20277;-77
2022/06/09 00:53:03;;;;;;;0.00;0.00;;;18.30;99.90;;;;;;4992755;28;20205;-77
2022/06/09 00:55:33;;;;;;;0.00;0.00;;;18.20;99.90;;;;;;5001673;28;20259;-77
2022/06/09 00:58:06;;;;;;;0.00;0.00;;;18.20;99.90;;;;;;5000874;28;20217;-74
2022/06/09 01:00:44;;;;;;;0.00;0.00;;;18.10;99.90;;;;;;4998191;28;20217;-74
2022/06/09 01:03:12;;;;;;;0.00;0.00;;;18.10;99.90;;;;;;4996605;28;20212;-74
2022/06/09 01:05:41;;;;;;;0.00;0.00;;;18.10;99.90;;;;;;4999263;28;20205;-75
2022/06/09 01:08:10;;;;;;;0.00;0.00;;;18.10;99.90;;;;;;4998861;28;20307;-74
2022/06/09 01:10:37;;;;;;;0.00;0.00;;;18.10;99.90;;;;;;4993470;28;20311;-74
2022/06/09 01:13:05;;;;;;;0.00;0.00;;;18.10;99.90;;;;;;5002978;28;20204;-78
2022/06/09 01:15:42;;;;;;;0.00;0.00;;;18.10;99.90;;;;;;4997107;28;20208;-77
2022/06/09 01:18:24;;;;;;;0.00;0.00;;;18.10;99.90;;;;;;4998774;28;20221;-76
2022/06/09 01:21:00;;;;;;;0.00;0.00;;;18.10;99.90;;;;;;4996307;28;20227;-76
2022/06/09 01:23:56;;;;;;;0.00;0.00;;;18.10;99.90;;;;;;4991329;28;20209;-77
2022/06/09 01:26:56;;;;;;;0.00;0.00;;;18.00;99.90;;;;;;4997873;28;20203;-76
2022/06/09 01:29:36;;;;;;;0.00;0.00;;;18.10;99.90;;;;;;5000311;28;20259;-77
2022/06/09 01:32:09;;;;;;;0.00;0.00;;;18.10;99.90;;;;;;4997606;28;20243;-77
2022/06/09 01:34:43;;;;;;;0.00;0.00;;;18.10;99.90;;;;;;4997346;28;20201;-76
2022/06/09 01:37:14;;;;;;;0.00;0.00;;;18.00;99.90;;;;;;4986374;28;20227;-77
2022/06/09 01:39:50;;;;;;;0.00;0.00;;;18.00;99.90;;;;;;4993395;28;20216;-76
2022/06/09 01:42:27;;;;;;;0.00;0.00;;;18.00;99.90;;;;;;4992151;28;20227;-76
2022/06/09 01:44:57;;;;;;;0.00;0.00;;;18.00;99.90;;;;;;4998335;28;20196;-76
2022/06/09 01:47:33;;;;;;;0.00;0.00;;;18.00;99.90;;;;;;4997689;28;20208;-76
2022/06/09 01:50:03;;;;;;;0.00;0.00;;;17.90;99.90;;;;;;4994575;28;20204;-76
2022/06/09 01:52:32;;;;;;;0.00;0.00;;;17.90;99.90;;;;;;4993866;28;20287;-77
2022/06/09 01:55:02;;;;;;;0.00;0.00;;;17.90;99.90;;;;;;5003668;28;20193;-76
2022/06/09 01:57:37;;;;;;;0.00;0.00;;;17.90;99.90;;;;;;4990324;28;20633;-76
2022/06/09 02:00:09;;;;;;;0.00;0.00;;;17.90;99.90;;;;;;4994951;28;20224;-76
2022/06/09 02:02:46;;;;;;;0.00;0.00;;;17.90;99.90;;;;;;4991704;28;20228;-77
2022/06/09 02:05:17;;;;;;;0.00;0.00;;;17.90;99.90;;;;;;4996188;28;20215;-77
2022/06/09 02:07:46;;;;;;;0.00;0.00;;;17.90;99.90;;;;;;4999836;28;20231;-77
2022/06/09 02:10:16;;;;;;;0.00;0.00;;;17.90;99.90;;;;;;4992376;28;20201;-77
2022/06/09 02:12:46;;;;;;;0.00;0.00;;;17.90;99.90;;;;;;4995240;28;20196;-78
2022/06/09 02:15:17;;;;;;;0.00;0.00;;;17.90;99.90;;;;;;4996253;28;20216;-77
2022/06/09 02:17:48;;;;;;;0.00;0.00;;;17.90;99.90;;;;;;5002171;28;20221;-76
2022/06/09 02:20:17;;;;;;;0.00;0.00;;;17.80;99.90;;;;;;4996345;28;20201;-77
2022/06/09 02:22:44;;;;;;;0.00;0.00;;;17.80;99.90;;;;;;5001959;28;20260;-77
2022/06/09 02:25:11;;;;;;;0.00;0.00;;;17.80;99.90;;;;;;5000587;28;20216;-77
2022/06/09 02:27:38;;;;;;;0.00;0.00;;;17.80;99.90;;;;;;4990178;28;20308;-77
2022/06/09 02:30:06;;;;;;;0.00;0.00;;;17.80;99.90;;;;;;5000455;28;20215;-76
2022/06/09 02:32:34;;;;;;;0.00;0.00;;;17.80;99.90;;;;;;4993475;28;20232;-77
2022/06/09 02:35:04;;;;;;;0.00;0.00;;;17.80;99.90;;;;;;5002565;28;20708;-77
2022/06/09 02:37:31;;;;;;;0.00;0.00;;;17.80;99.90;;;;;;4998999;28;20200;-77
2022/06/09 02:39:58;;;;;;;0.00;0.00;;;17.80;99.90;;;;;;5000002;28;20213;-76
2022/06/09 02:42:25;;;;;;;0.00;0.00;;;17.80;99.90;;;;;;4995724;28;20225;-76
2022/06/09 02:44:52;;;;;;;0.00;0.00;;;17.80;99.90;;;;;;4991135;28;20209;-76
2022/06/09 02:47:20;;;;;;;0.00;0.00;;;17.80;99.90;;;;;;4997938;28;20213;-77
2022/06/09 02:49:47;;;;;;;0.00;0.00;;;17.70;99.90;;;;;;4998632;28;20204;-77
2022/06/09 02:52:15;;;;;;;0.00;0.00;;;17.80;99.90;;;;;;4989673;28;20237;-76
2022/06/09 02:54:42;;;;;;;0.00;0.00;;;17.70;99.90;;;;;;4994437;28;20236;-76
2022/06/09 02:57:09;;;;;;;0.00;0.00;;;17.70;99.90;;;;;;4995700;28;20205;-77
2022/06/09 02:59:36;;;;;;;0.00;0.00;;;17.60;99.90;;;;;;4993691;28;20220;-77
2022/06/09 03:02:03;;;;;;;0.00;0.00;;;17.60;99.90;;;;;;4996161;28;20227;-76
2022/06/09 03:04:30;;;;;;;0.00;0.00;;;17.60;99.90;;;;;;4990705;28;20687;-77
2022/06/09 03:06:57;;;;;;;0.00;0.00;;;17.60;99.90;;;;;;4998955;28;20220;-76
2022/06/09 03:09:25;;;;;;;0.00;0.00;;;17.60;99.90;;;;;;4993903;28;20248;-76
2022/06/09 03:11:52;;;;;;;0.00;0.00;;;17.60;99.90;;;;;;4990158;28;20320;-77
2022/06/09 03:14:19;;;;;;;0.00;0.00;;;17.50;99.90;;;;;;4990265;28;20201;-77
2022/06/09 03:16:46;;;;;;;0.00;0.00;;;17.60;99.90;;;;;;4989296;28;20236;-77
2022/06/09 03:19:13;;;;;;;0.00;0.00;;;17.50;99.90;;;;;;4988560;28;20299;-76
2022/06/09 03:21:41;;;;;;;0.00;0.00;;;17.50;99.90;;;;;;5000395;28;20228;-76
2022/06/09 03:24:08;;;;;;;0.00;0.00;;;17.60;99.90;;;;;;4997469;28;20207;-77
2022/06/09 03:26:36;;;;;;;0.00;0.00;;;17.50;99.90;;;;;;4994016;28;20673;-77
2022/06/09 03:29:04;;;;;;;0.00;0.00;;;17.50;99.90;;;;;;4997748;28;20203;-77
2022/06/09 03:31:31;;;;;;;0.00;0.00;;;17.40;99.90;;;;;;4989255;28;20300;-78
2022/06/09 03:33:58;;;;;;;0.00;0.00;;;17.40;99.90;;;;;;4991845;28;20319;-77
2022/06/09 03:36:25;;;;;;;0.00;0.00;;;17.40;99.90;;;;;;5000824;28;20196;-77
2022/06/09 03:38:52;;;;;;;0.00;0.00;;;17.40;99.90;;;;;;5000143;28;20225;-77
2022/06/09 03:41:19;;;;;;;0.00;0.00;;;17.40;99.90;;;;;;4994183;28;20224;-77
2022/06/09 03:43:47;;;;;;;0.00;0.00;;;17.40;99.90;;;;;;4991989;28;20297;-77
2022/06/09 03:46:14;;;;;;;0.00;0.00;;;17.40;99.90;;;;;;4990962;28;20240;-75
2022/06/09 03:48:41;;;;;;;0.00;0.00;;;17.40;99.90;;;;;;4998459;28;20196;-77
2022/06/09 03:51:10;;;;;;;0.00;0.00;;;17.40;99.90;;;;;;5001075;28;20275;-75
2022/06/09 03:53:37;;;;;;;0.00;0.00;;;17.50;99.90;;;;;;4999134;28;20290;-77
2022/06/09 03:56:05;;;;;;;0.00;0.00;;;17.50;99.90;;;;;;5003610;28;20201;-77
2022/06/09 03:58:31;;;;;;;0.00;0.00;;;17.50;99.90;;;;;;4999053;28;20228;-77
2022/06/09 04:01:00;;;;;;;0.00;0.00;;;17.50;99.90;;;;;;5000570;28;20731;-76
2022/06/09 04:03:27;;;;;;;0.00;0.00;;;17.50;99.90;;;;;;5004594;28;20216;-76
2022/06/09 04:05:54;;;;;;;0.00;0.00;;;17.40;99.90;;;;;;5005353;28;20291;-77
2022/06/09 04:08:21;;;;;;;0.00;0.00;;;17.40;99.90;;;;;;4998067;28;20229;-77
2022/06/09 04:10:48;;;;;;;0.00;0.00;;;17.40;99.90;;;;;;4999142;28;20275;-78
2022/06/09 04:13:16;;;;;;;0.00;0.00;;;17.40;99.90;;;;;;4997210;28;20201;-76
2022/06/09 04:15:44;;;;;;;0.00;0.00;;;17.40;99.90;;;;;;4994444;28;20230;-78
2022/06/09 04:18:12;;;;;;;0.00;0.00;;;17.40;99.90;;;;;;5004801;28;20231;-78
2022/06/09 04:20:40;;;;;;;0.00;0.00;;;17.40;99.90;;;;;;4996297;28;20221;-77
2022/06/09 04:23:06;;;;;;;0.00;0.00;;;17.40;99.90;;;;;;4995540;28;20203;-77
2022/06/09 04:25:34;;;;;;;0.00;0.00;;;17.40;99.90;;;;;;4997522;28;20211;-78
2022/06/09 04:28:02;;;;;;;0.00;0.00;;;17.30;99.90;;;;;;4998992;28;20208;-78
2022/06/09 04:30:29;;;;;;;0.00;0.00;;;17.40;99.90;;;;;;5004256;28;20209;-77
2022/06/09 04:32:55;;;;;;;0.00;0.00;;;17.40;99.90;;;;;;4998130;28;20255;-77
2022/06/09 04:35:24;;;;;;;0.00;0.00;;;17.40;99.90;;;;;;4994254;28;20224;-77
2022/06/09 04:38:00;;;;;;;0.10;0.10;;;17.40;99.90;;;;;;4996372;28;20284;-75
2022/06/09 04:40:29;;;;;;;0.00;0.00;;;17.40;99.90;;;;;;4999513;28;20196;-75
2022/06/09 04:42:56;;;;;;;0.00;0.00;;;17.40;99.90;;;;;;4999459;28;20200;-76
2022/06/09 04:45:23;;;;;;;0.00;0.00;;;17.40;99.90;;;;;;4992497;28;20212;-77
2022/06/09 04:47:50;;;;;;;0.00;0.00;;;17.40;99.90;;;;;;4993580;28;20267;-76
2022/06/09 04:50:18;;;;;;;0.00;0.00;;;17.40;99.90;;;;;;4993082;28;20224;-77
2022/06/09 04:52:47;;;;;;;0.00;0.00;;;17.40;99.90;;;;;;5001266;28;20228;-74
2022/06/09 04:55:15;;;;;;;0.00;0.00;;;17.50;99.90;;;;;;5000569;28;20232;-74
2022/06/09 04:57:42;;;;;;;0.00;0.00;;;17.50;99.90;;;;;;5000208;28;20243;-74
2022/06/09 05:00:12;;;;;;;0.00;0.00;;;17.50;99.90;;;;;;5004443;28;20235;-74
2022/06/09 05:02:39;;;;;;;0.00;0.00;;;17.50;99.90;;;;;;5001359;28;20220;-74
2022/06/09 05:05:10;;;;;;;0.00;0.00;;;17.50;99.90;;;;;;4995973;28;20303;-75
2022/06/09 05:07:37;;;;;;;0.00;0.00;;;17.50;99.90;;;;;;5001661;28;20255;-74
2022/06/09 05:10:07;;;;;;;0.00;0.00;;;17.50;99.90;;;;;;4996263;28;20196;-73
2022/06/09 05:12:34;;;;;;;0.00;0.00;;;17.60;99.90;;;;;;5000147;28;20758;-76
2022/06/09 05:15:01;;;;;;;0.00;0.00;;;17.60;99.90;;;;;;4997265;28;20287;-76
2022/06/09 05:17:28;;;;;;;0.00;0.00;;;17.60;99.90;;;;;;4999037;28;20272;-77
2022/06/09 05:19:55;;;;;;;0.00;0.00;;;17.60;99.90;;;;;;4996692;28;20212;-77
2022/06/09 05:22:22;;;;;;;0.00;0.00;;;17.70;99.90;;;;;;4991544;28;20248;-77
2022/06/09 05:24:49;;;;;;;0.00;0.00;;;17.70;99.90;;;;;;4992743;28;20286;-77
2022/06/09 05:27:17;;;;;;;0.00;0.00;;;17.80;99.90;;;;;;4992787;28;20205;-77
2022/06/09 05:29:44;;;;;;;0.00;0.00;;;17.90;99.90;;;;;;4998312;28;20197;-77
2022/06/09 05:32:12;;;;;;;0.10;0.00;;;17.90;99.90;;;;;;4989116;28;20229;-75
2022/06/09 05:34:39;;;;;;;0.00;0.00;;;18.00;99.90;;;;;;4996927;28;20201;-77
2022/06/09 05:37:06;;;;;;;0.00;0.00;;;18.00;99.90;;;;;;4993622;28;20205;-76
2022/06/09 05:45:06;;;;;;;0.00;0.00;;;18.30;99.90;;;;;;4999668;28;20204;-77
2022/06/09 05:47:33;;;;;;;0.00;0.00;;;18.30;99.90;;;;;;4998387;28;20296;-76
2022/06/09 05:50:00;;;;;;;0.00;0.00;;;18.30;99.90;;;;;;4997361;28;20197;-78
2022/06/09 05:52:29;;;;;;;0.00;0.00;;;18.30;99.90;;;;;;4994094;28;20707;-76
2022/06/09 05:54:57;;;;;;;0.00;0.00;;;18.20;99.90;;;;;;5003999;28;20193;-76
2022/06/09 05:57:27;;;;;;;0.00;0.00;;;18.20;99.90;;;;;;4995206;28;20205;-76
2022/06/09 05:59:55;;;;;;;0.00;0.00;;;18.20;99.90;;;;;;5002701;28;20297;-76
2022/06/09 06:02:25;;;;;;;0.00;0.00;;;18.20;99.90;;;;;;4996480;28;20221;-77
2022/06/09 06:04:53;;;;;;;0.00;0.00;;;18.20;99.90;;;;;;4998099;28;20205;-77
2022/06/09 06:07:20;;;;;;;0.00;0.00;;;18.20;99.90;;;;;;4997280;28;20212;-77
2022/06/09 06:09:50;;;;;;;0.00;0.00;;;18.30;99.90;;;;;;4993054;28;20197;-77
2022/06/09 06:12:17;;;;;;;0.00;0.00;;;18.30;99.90;;;;;;4998522;28;20240;-78
2022/06/09 06:14:45;;;;;;;0.00;0.00;;;18.30;99.90;;;;;;4998186;28;20216;-78
2022/06/09 06:17:12;;;;;;;0.00;0.00;;;18.30;99.90;;;;;;4992250;28;20213;-78
2022/06/09 06:19:39;;;;;;;0.00;0.00;;;18.40;99.90;;;;;;4991387;28;20649;-78
2022/06/09 06:22:06;;;;;;;0.00;0.00;;;18.50;99.90;;;;;;5001818;28;20324;-78
2022/06/09 06:24:33;;;;;;;0.00;0.00;;;18.50;99.90;;;;;;4991150;28;20201;-77
2022/06/09 06:27:00;;;;;;;0.00;0.00;;;18.60;99.90;;;;;;4995022;28;20201;-77
2022/06/09 06:29:28;;;;;;;0.00;0.00;;;18.70;99.90;;;;;;4998823;28;20283;-79
2022/06/09 06:31:56;;;;;;;0.00;0.00;;;18.70;99.90;;;;;;4997695;28;20221;-76
2022/06/09 06:34:24;;;;;;;0.00;0.00;;;18.70;99.90;;;;;;4996415;28;20217;-76
2022/06/09 06:36:51;;;;;;;0.00;0.00;;;18.70;99.90;;;;;;4994297;28;20212;-76
2022/06/09 06:39:18;;;;;;;0.00;0.00;;;18.70;99.90;;;;;;4993050;28;20228;-77
2022/06/09 06:41:45;;;;;;;0.00;0.00;;;18.70;99.90;;;;;;4992684;28;20217;-76
2022/06/09 06:44:12;;;;;;;0.00;0.00;;;18.70;99.90;;;;;;4995227;28;20220;-78
2022/06/09 06:46:39;;;;;;;0.00;0.00;;;18.80;99.90;;;;;;4985391;28;20229;-77
2022/06/09 06:49:09;;;;;;;0.00;0.00;;;18.80;99.90;;;;;;5002618;28;20279;-77
2022/06/09 06:51:37;;;;;;;0.00;0.00;;;18.90;99.90;;;;;;4988382;28;20240;-77
2022/06/09 06:54:06;;;;;;;0.00;0.00;;;18.90;99.90;;;;;;5003212;28;20197;-77
2022/06/09 06:56:35;;;;;;;0.00;0.00;;;18.90;99.90;;;;;;4997748;28;20223;-77
2022/06/09 06:59:02;;;;;;;0.00;0.00;;;19.00;99.90;;;;;;5004114;28;20216;-76
2022/06/09 07:01:30;;;;;;;0.00;0.00;;;19.10;99.90;;;;;;4995355;28;20224;-76
2022/06/09 07:03:57;;;;;;;0.00;0.00;;;19.30;99.90;;;;;;4991121;28;20288;-77
2022/06/09 07:06:26;;;;;;;0.00;0.00;;;19.40;99.90;;;;;;5016238;28;20209;-76
2022/06/09 07:08:53;;;;;;;0.00;0.00;;;19.60;99.90;;;;;;4993787;28;20197;-77
2022/06/09 07:11:20;;;;;;;0.00;0.00;;;19.70;99.90;;;;;;4997296;28;20635;-76
2022/06/09 07:13:49;;;;;;;0.00;0.00;;;20.00;99.90;;;;;;5000172;28;20294;-76
2022/06/09 07:16:16;;;;;;;0.00;0.00;;;20.10;99.90;;;;;;4999816;28;20201;-77
2022/06/09 07:18:43;;;;;;;0.00;0.00;;;20.20;99.90;;;;;;5005057;28;20205;-77
2022/06/09 07:21:10;;;;;;;0.00;0.00;;;20.30;99.90;;;;;;4997176;28;20245;-77
2022/06/09 07:23:51;;;;;;;0.00;0.00;;;20.30;99.90;;;;;;5002644;28;20211;-76
2022/06/09 07:26:18;;;;;;;0.00;0.00;;;20.40;99.90;;;;;;4988418;28;20223;-77
2022/06/09 07:28:45;;;;;;;0.00;0.00;;;20.40;99.90;;;;;;4996777;28;20298;-76
2022/06/09 07:31:13;;;;;;;0.00;0.00;;;20.50;99.90;;;;;;4997567;28;20379;-77
2022/06/09 07:33:41;;;;;;;0.00;0.00;;;20.60;99.90;;;;;;5001305;28;20201;-74
2022/06/09 07:36:11;;;;;;;0.00;0.00;;;20.80;99.90;;;;;;4998509;28;20213;-74
2022/06/09 07:38:40;;;;;;;0.00;0.00;;;21.00;99.90;;;;;;5002424;28;20200;-75
2022/06/09 07:41:08;;;;;;;0.00;0.00;;;21.20;99.90;;;;;;4990174;28;20217;-77
2022/06/09 07:43:35;;;;;;;0.00;0.00;;;21.30;99.90;;;;;;4997297;28;20193;-75
2022/06/09 07:46:03;;;;;;;0.00;0.00;;;21.50;99.90;;;;;;5003631;28;20209;-77
2022/06/09 07:48:30;;;;;;;0.00;0.00;;;21.60;99.90;;;;;;4998794;28;20208;-76
2022/06/09 07:50:57;;;;;;;0.00;0.00;;;21.70;99.90;;;;;;4995681;28;20232;-76
2022/06/09 07:53:25;;;;;;;0.00;0.00;;;21.80;99.90;;;;;;4999051;28;20269;-77
2022/06/09 07:55:54;;;;;;;0.00;0.00;;;21.90;99.90;;;;;;4996803;28;20204;-77
2022/06/09 07:58:22;;;;;;;0.00;0.00;;;21.90;99.90;;;;;;4996122;28;20205;-77
2022/06/09 08:00:49;;;;;;;0.00;0.00;;;22.00;99.90;;;;;;4999773;28;20224;-77
2022/06/09 08:03:19;;;;;;;0.00;0.00;;;22.00;99.90;;;;;;5000542;28;20287;-76
2022/06/09 08:05:46;;;;;;;0.00;0.00;;;22.00;99.90;;;;;;4992334;28;20208;-77
2022/06/09 08:08:14;;;;;;;0.00;0.00;;;21.90;99.90;;;;;;5002852;28;20213;-77
2022/06/09 08:10:42;;;;;;;0.00;0.00;;;21.80;99.90;;;;;;5000982;28;20221;-76
2022/06/09 08:13:12;;;;;;;0.00;0.00;;;21.60;99.90;;;;;;4991607;28;20765;-76
2022/06/09 08:15:40;;;;;;;0.00;0.00;;;21.70;99.90;;;;;;4997145;28;20201;-76
2022/06/09 08:18:07;;;;;;;0.00;0.00;;;21.60;99.90;;;;;;5003280;28;20200;-76
2022/06/09 08:20:36;;;;;;;0.00;0.00;;;21.50;99.90;;;;;;4996243;28;20229;-76
2022/06/09 08:23:08;;;;;;;0.00;0.00;;;21.40;99.90;;;;;;4996078;28;20244;-77
2022/06/09 08:25:36;;;;;;;0.00;0.00;;;21.20;99.90;;;;;;4998548;28;20232;-76
2022/06/09 08:28:04;;;;;;;0.00;0.00;;;21.20;99.90;;;;;;4997825;28;20571;-76
2022/06/09 08:30:34;;;;;;;0.00;0.00;;;21.20;99.90;;;;;;5003334;28;20194;-77
2022/06/09 08:33:01;;;;;;;0.00;0.00;;;21.30;99.90;;;;;;5000236;28;20226;-77
2022/06/09 08:35:29;;;;;;;0.00;0.00;;;21.40;99.90;;;;;;4990093;28;20199;-76
2022/06/09 08:37:56;;;;;;;0.00;0.00;;;21.50;99.90;;;;;;4993941;28;20283;-77
2022/06/09 08:40:29;;;;;;;0.00;0.00;;;21.50;99.90;;;;;;4999167;28;20220;-77
2022/06/09 08:43:11;;;;;;;0.00;0.00;;;21.70;99.90;;;;;;5003231;28;20259;-76
2022/06/09 08:45:42;;;;;;;0.00;0.00;;;21.60;99.90;;;;;;4995357;28;20227;-77
2022/06/09 08:48:14;;;;;;;0.00;0.00;;;21.60;99.90;;;;;;4997579;28;20197;-78
2022/06/09 08:50:46;;;;;;;0.00;0.00;;;21.60;99.90;;;;;;4992942;28;20261;-76
2022/06/09 08:53:18;;;;;;;0.00;0.00;;;21.60;99.90;;;;;;5001443;28;20266;-76
2022/06/09 08:55:47;;;;;;;0.00;0.00;;;21.60;99.90;;;;;;4996940;28;20209;-76
2022/06/09 08:58:26;;;;;;;0.00;0.00;;;21.60;99.90;;;;;;5003284;28;20223;-77
2022/06/09 09:01:03;;;;;;;0.00;0.00;;;21.80;99.90;;;;;;5001325;28;20228;-77
2022/06/09 09:03:35;;;;;;;0.00;0.00;;;21.90;99.90;;;;;;4999755;28;20197;-77
2022/06/09 09:06:07;;;;;;;0.00;0.00;;;22.00;99.90;;;;;;5001339;28;20292;-77
2022/06/09 09:08:36;;;;;;;0.00;0.00;;;22.00;99.90;;;;;;4990312;28;20279;-78
2022/06/09 09:11:19;;;;;;;0.00;0.00;;;21.90;99.90;;;;;;4992861;28;20266;-78
2022/06/09 09:13:54;;;;;;;0.00;0.00;;;21.90;99.90;;;;;;5001169;28;20197;-77
2022/06/09 09:16:34;;;;;;;0.00;0.00;;;21.90;99.90;;;;;;4996582;28;20276;-77
2022/06/09 09:19:06;;;;;;;0.00;0.00;;;22.00;99.90;;;;;;4994909;28;20276;-76
2022/06/09 09:21:52;;;;;;;0.00;0.00;;;22.10;99.90;;;;;;5002361;28;20295;-78
2022/06/09 09:24:28;;;;;;;0.00;0.00;;;22.20;99.90;;;;;;4993452;28;20245;-77
2022/06/09 09:27:04;;;;;;;0.00;0.00;;;22.10;99.90;;;;;;5001343;28;20206;-77
2022/06/09 09:29:39;;;;;;;0.00;0.00;;;22.00;99.90;;;;;;4994995;28;20211;-77
2022/06/09 09:32:13;;;;;;;0.00;0.00;;;21.90;99.90;;;;;;4994412;28;20224;-78
2022/06/09 09:34:44;;;;;;;0.00;0.00;;;21.70;99.90;;;;;;5000193;28;20263;-76
2022/06/09 09:37:22;;;;;;;0.00;0.00;;;21.70;99.90;;;;;;4992706;28;20274;-77
2022/06/09 09:39:54;;;;;;;0.00;0.00;;;22.00;99.90;;;;;;4996199;28;20204;-77
2022/06/09 09:42:24;;;;;;;0.00;0.00;;;22.30;99.90;;;;;;4998018;28;20283;-78
2022/06/09 09:45:01;;;;;;;0.00;0.00;;;22.60;99.90;;;;;;4997893;28;20211;-77
2022/06/09 09:47:31;;;;;;;0.00;0.00;;;23.30;99.90;;;;;;4995103;28;20258;-77
2022/06/09 09:50:04;;;;;;;0.00;0.00;;;23.30;99.90;;;;;;4998948;28;20765;-76
2022/06/09 09:52:41;;;;;;;0.00;0.00;;;23.30;99.90;;;;;;5001060;28;20241;-77
2022/06/09 09:55:27;;;;;;;0.00;0.00;;;23.30;99.90;;;;;;4993629;28;20208;-77
2022/06/09 09:58:20;;;;;;;0.00;0.00;;;23.40;99.90;;;;;;4996057;28;20680;-77
2022/06/09 10:00:49;;;;;;;0.00;0.00;;;23.60;99.90;;;;;;5007713;28;20236;-76
2022/06/09 10:09:10;;;;;;;0.00;0.00;;;23.50;99.90;;;;;;5000089;28;20200;-78
2022/06/09 10:11:56;;;;;;;0.00;0.00;;;23.40;99.90;;;;;;5013566;28;20220;-77
2022/06/09 10:14:32;;;;;;;0.00;0.00;;;23.30;99.90;;;;;;4993745;28;20205;-77
2022/06/09 10:17:01;;;;;;;0.00;0.00;;;23.10;99.90;;;;;;4993271;28;20204;-77
2022/06/09 10:19:32;;;;;;;0.00;0.00;;;22.90;99.90;;;;;;5000654;28;20292;-76
2022/06/09 10:22:02;;;;;;;0.00;0.00;;;22.90;99.90;;;;;;4995805;28;20264;-77
2022/06/09 10:24:39;;;;;;;0.00;0.00;;;23.10;99.90;;;;;;4994002;28;20243;-76
2022/06/09 10:27:08;;;;;;;0.00;0.00;;;23.10;99.90;;;;;;4996329;28;20201;-76
2022/06/09 10:29:45;;;;;;;0.00;0.00;;;23.10;99.90;;;;;;4998618;28;20206;-77
2022/06/09 10:32:19;;;;;;;0.00;0.00;;;23.00;99.90;;;;;;4988569;28;20474;-76
2022/06/09 10:34:55;;;;;;;0.00;0.00;;;22.90;99.90;;;;;;5001364;28;20212;-77
2022/06/09 10:37:26;;;;;;;0.00;0.00;;;22.80;99.90;;;;;;4994872;28;20204;-77
2022/06/09 10:40:00;;;;;;;0.00;0.00;;;22.70;99.90;;;;;;4990906;28;20212;-77
2022/06/09 10:42:34;;;;;;;0.00;0.00;;;22.50;99.90;;;;;;4992704;28;20232;-77
2022/06/09 10:45:19;;;;;;;0.00;0.00;;;22.50;99.90;;;;;;4995643;28;20220;-78
2022/06/09 10:56:35;;;;;;;0.00;0.00;;;22.40;99.90;;;;;;5001246;28;20252;-77
2022/06/09 10:59:08;;;;;;;0.00;0.00;;;22.50;99.90;;;;;;5004216;28;20268;-77
2022/06/09 11:01:35;;;;;;;0.00;0.00;;;22.70;99.90;;;;;;4998593;28;20220;-78
2022/06/09 11:04:05;;;;;;;0.00;0.00;;;23.30;99.90;;;;;;5004700;28;20197;-77
2022/06/09 11:06:46;;;;;;;0.00;0.00;;;23.50;99.90;;;;;;4999974;28;20211;-77
2022/06/09 11:09:25;;;;;;;0.00;0.00;;;23.70;99.90;;;;;;4995312;28;20211;-77
2022/06/09 11:12:03;;;;;;;0.00;0.00;;;23.70;99.90;;;;;;5000269;28;20700;-77
2022/06/09 11:14:53;;;;;;;0.00;0.00;;;23.70;99.90;;;;;;4997832;28;20267;-77
2022/06/09 11:17:36;;;;;;;0.00;0.00;;;23.60;99.90;;;;;;4997450;28;20201;-78
2022/06/09 11:20:15;;;;;;;0.00;0.00;;;23.80;99.90;;;;;;4996026;28;20193;-77
2022/06/09 11:22:51;;;;;;;0.00;0.00;;;24.00;99.90;;;;;;5003897;28;20204;-77
2022/06/09 11:25:42;;;;;;;0.00;0.00;;;24.30;99.90;;;;;;4995848;28;20215;-77
2022/06/09 11:28:23;;;;;;;0.00;0.00;;;24.40;99.90;;;;;;4996837;28;20287;-77
2022/06/09 11:30:56;;;;;;;0.00;0.00;;;;;;;;;;4996316;28;20713;-77
2022/06/09 11:33:36;;;;;;;0.00;0.00;;;24.20;99.90;;;;;;4995308;28;20205;-77
2022/06/09 11:36:18;;;;;;;0.00;0.00;;;24.10;99.90;;;;;;4999304;28;20208;-77
2022/06/09 11:38:52;;;;;;;0.00;0.00;;;24.20;99.90;;;;;;4993298;28;20216;-77
2022/06/09 11:41:29;;;;;;;0.00;0.00;;;24.30;99.90;;;;;;5008191;28;20611;-77
2022/06/09 11:44:05;;;;;;;0.00;0.00;;;;;;;;;;4995602;28;20200;-77
2022/06/09 11:46:34;;;;;;;0.00;0.00;;;;;;;;;;4997504;28;20208;-77
2022/06/09 11:49:04;;;;;;;0.00;0.00;;;25.10;99.90;;;;;;4994017;28;20205;-77
2022/06/09 11:51:34;;;;;;;0.00;0.00;;;25.20;99.90;;;;;;5005262;28;20287;-77
2022/06/09 11:54:06;;;;;;;0.00;0.00;;;25.30;99.90;;;;;;5003078;28;20201;-77
2022/06/09 11:56:36;;;;;;;0.00;0.00;;;25.30;99.90;;;;;;5001332;28;20682;-76
2022/06/09 11:59:17;;;;;;;0.00;0.00;;;25.20;99.90;;;;;;4995439;28;20217;-77
2022/06/09 12:02:08;;;;;;;0.00;0.00;;;25.10;99.90;;;;;;5001124;28;20314;-77
2022/06/09 12:04:51;;;;;;;0.00;0.00;;;25.00;99.90;;;;;;4994048;28;20208;-77
2022/06/09 12:07:32;;;;;;;0.00;0.00;;;24.90;99.90;;;;;;5000321;28;20204;-77
2022/06/09 12:10:22;;;;;;;0.00;0.00;;;24.70;99.90;;;;;;4998381;28;20201;-77
2022/06/09 12:13:14;;;;;;;0.00;0.00;;;24.50;99.90;;;;;;4993109;28;20240;-77
2022/06/09 12:15:50;;;;;;;0.00;0.00;;;24.20;99.90;;;;;;4995297;28;20308;-77
2022/06/09 12:18:32;;;;;;;0.00;0.00;;;24.00;99.90;;;;;;5005370;28;20208;-77
2022/06/09 12:21:06;;;;;;;0.00;0.00;;;23.80;99.90;;;;;;4995917;28;20228;-77
2022/06/09 12:23:36;;;;;;;0.00;0.00;;;23.80;99.90;;;;;;5004066;28;20224;-77
2022/06/09 12:26:56;;;;;;;0.00;0.00;;;23.80;99.90;;;;;;4995830;28;20240;-76
2022/06/09 12:29:43;;;;;;;0.00;0.00;;;23.80;99.90;;;;;;4959002;28;20736;-77
2022/06/09 12:32:46;;;;;;;0.00;0.00;;;23.90;99.90;;;;;;4941832;28;20222;-77
2022/06/09 12:35:27;;;;;;;0.00;0.00;;;24.00;99.90;;;;;;4932032;29;20213;-78
2022/06/09 12:37:59;;;;;;;0.00;0.00;;;24.10;99.90;;;;;;4922412;29;20198;-77
2022/06/09 12:40:39;;;;;;;0.00;0.00;;;24.20;99.90;;;;;;4972241;28;20232;-77
2022/06/09 12:43:21;;;;;;;0.00;0.00;;;24.30;99.90;;;;;;4997262;28;20274;-78
2022/06/09 12:46:15;;;;;;;0.00;0.00;;;24.30;99.90;;;;;;5003065;28;20204;-76
2022/06/09 12:48:42;;;;;;;0.00;0.00;;;24.30;99.90;;;;;;4991959;28;20264;-76
2022/06/09 12:51:18;;;;;;;0.00;0.00;;;24.40;99.90;;;;;;5003546;28;20229;-77
2022/06/09 12:53:55;;;;;;;0.00;0.00;;;24.40;99.90;;;;;;5000821;28;20208;-77
2022/06/09 12:56:27;;;;;;;0.00;0.00;;;24.40;99.90;;;;;;4997554;28;20208;-76
2022/06/09 12:58:56;;;;;;;0.00;0.00;;;24.50;99.90;;;;;;5000467;28;20570;-76
2022/06/09 13:01:27;;;;;;;0.00;0.00;;;24.50;99.90;;;;;;4993677;28;20270;-77
2022/06/09 13:03:59;;;;;;;0.00;0.00;;;24.50;99.90;;;;;;4994997;28;20202;-77
2022/06/09 13:06:29;;;;;;;0.00;0.00;;;24.50;99.90;;;;;;4996054;28;20268;-77
2022/06/09 13:09:00;;;;;;;0.00;0.00;;;24.50;99.90;;;;;;5002145;28;20201;-76
2022/06/09 13:14:20;;;;;;;0.00;0.00;;;24.60;99.90;;;;;;4990088;28;20204;-77
2022/06/09 13:16:51;;;;;;;0.00;0.00;;;24.50;99.90;;;;;;4992473;28;20202;-77
2022/06/09 13:19:22;;;;;;;0.00;0.00;;;24.50;99.90;;;;;;4994711;28;20220;-77
2022/06/09 13:21:50;;;;;;;0.00;0.00;;;24.50;99.90;;;;;;4997301;28;20233;-77
2022/06/09 13:24:24;;;;;;;0.00;0.00;;;24.40;99.90;;;;;;5000154;28;20207;-77
2022/06/09 13:26:52;;;;;;;0.00;0.00;;;24.40;99.90;;;;;;4996109;28;20207;-76
2022/06/09 13:29:24;;;;;;;0.00;0.00;;;24.30;99.90;;;;;;4990631;28;20575;-78
2022/06/09 13:31:54;;;;;;;0.00;0.00;;;24.30;99.90;;;;;;4996645;28;20220;-76